Time;durP1;ratioP1;P1;durP2;ratioP2;P2;SDS_P1;SDS_P2;PMS_P1;PMS_P2;Temp;Humidity;BMP_temperature;BMP_pressure;BME280_temperature;BME280_humidity;BME280_pressure;Samples;Min_cycle;Max_cycle;Signal;HPM_P1;HPM_P2
2021/12/13 00:02:47;;;;;;;11.60;6.43;;;;;;;-1.59;79.67;100377.75;4432960;32;34369;-73
2021/12/13 00:05:40;;;;;;;14.05;6.68;;;;;;;-1.61;80.08;100382.50;4432113;32;34346;-74
2021/12/13 00:08:31;;;;;;;12.73;6.12;;;;;;;-1.59;80.35;100372.37;4435083;32;35853;-72
2021/12/13 00:11:38;;;;;;;14.93;7.20;;;;;;;-1.66;80.27;100376.94;4432129;32;35554;-73
2021/12/13 00:14:30;;;;;;;14.02;7.03;;;;;;;-1.69;80.31;100366.59;4432861;32;33194;-74
2021/12/13 00:17:21;;;;;;;14.45;6.60;;;;;;;-1.75;80.47;100362.91;4432883;32;34345;-74
2021/12/13 00:20:38;;;;;;;13.10;6.62;;;;;;;-1.68;80.28;100373.63;4432917;32;34225;-74
2021/12/13 00:23:33;;;;;;;11.93;6.00;;;;;;;-1.53;79.44;100376.88;4434592;32;34579;-73
2021/12/13 00:26:26;;;;;;;11.93;6.00;;;;;;;-1.51;79.22;100385.53;4433214;32;35014;-74
2021/12/13 00:29:23;;;;;;;16.42;6.55;;;;;;;-1.32;78.69;100374.91;4434744;32;35357;-74
2021/12/13 00:32:23;;;;;;;13.65;6.15;;;;;;;-1.21;77.70;100374.25;4432518;32;34153;-74
2021/12/13 00:35:14;;;;;;;15.57;6.32;;;;;;;-1.45;78.81;100378.47;4434029;32;35481;-74
2021/12/13 00:38:04;;;;;;;10.85;5.25;;;;;;;-1.49;79.32;100388.03;4433570;32;34664;-74
2021/12/13 00:41:05;;;;;;;13.32;5.95;;;;;;;-1.44;78.96;100383.66;4432841;32;35322;-74
2021/12/13 00:43:54;;;;;;;11.63;5.43;;;;;;;-1.41;78.69;100395.84;4434369;32;35193;-74
2021/12/13 00:46:43;;;;;;;13.15;6.45;;;;;;;-1.40;78.54;100387.56;4432115;32;35563;-75
2021/12/13 00:49:32;;;;;;;13.65;6.40;;;;;;;-1.42;78.63;100384.28;4433574;32;36007;-73
2021/12/13 00:52:20;;;;;;;14.50;5.93;;;;;;;-1.54;78.75;100396.72;4432666;32;34251;-73
2021/12/13 00:55:16;;;;;;;14.35;6.40;;;;;;;-1.48;79.05;100395.88;4432555;32;35027;-74
2021/12/13 00:58:12;;;;;;;12.15;6.87;;;;;;;-1.64;79.88;100390.97;4431363;32;35269;-72
2021/12/13 01:01:05;;;;;;;15.75;7.18;;;;;;;-1.81;80.23;100387.94;4430339;32;36025;-72
2021/12/13 01:03:52;;;;;;;12.75;6.50;;;;;;;-1.87;80.74;100394.97;4432736;32;34897;-72
2021/12/13 01:06:58;;;;;;;12.90;6.57;;;;;;;-1.78;80.54;100386.69;4433904;32;33900;-73
2021/12/13 01:10:09;;;;;;;12.10;5.87;;;;;;;-1.64;79.81;100391.81;4430989;32;36053;-75
2021/12/13 01:12:59;;;;;;;12.37;5.85;;;;;;;-1.56;79.87;100392.63;4431841;32;36412;-73
2021/12/13 01:16:10;;;;;;;14.20;7.50;;;;;;;-1.58;79.46;100379.37;4433910;32;34242;-74
2021/12/13 01:22:42;;;;;;;12.50;6.10;;;;;;;-1.64;79.30;100391.81;4430866;32;34372;-74
2021/12/13 01:25:59;;;;;;;12.35;6.25;;;;;;;-1.67;79.78;100402.97;4432686;32;34621;-72
2021/12/13 01:28:49;;;;;;;13.32;6.57;;;;;;;-1.61;79.27;100391.38;4431803;32;34581;-75
2021/12/13 01:31:42;;;;;;;13.32;6.25;;;;;;;-1.59;78.76;100400.06;4432981;32;35601;-74
2021/12/13 01:34:32;;;;;;;18.42;6.80;;;;;;;-1.56;78.98;100396.13;4432877;32;34154;-74
2021/12/13 01:37:18;;;;;;;15.68;6.55;;;;;;;-1.63;79.31;100398.00;4432795;32;35564;-74
2021/12/13 01:40:12;;;;;;;15.57;7.22;;;;;;;-1.41;78.16;100402.03;4433312;32;34560;-73
2021/12/13 01:43:07;;;;;;;12.80;6.72;;;;;;;-1.59;78.83;100393.88;4431685;32;34799;-74
2021/12/13 01:45:55;;;;;;;11.63;5.97;;;;;;;-1.74;79.53;100404.84;4433149;32;35135;-73
2021/12/13 01:48:45;;;;;;;14.13;6.53;;;;;;;-1.53;78.35;100411.81;4421334;32;35879;-75
2021/12/13 01:51:33;;;;;;;12.02;6.53;;;;;;;-1.60;79.02;100398.38;4433080;32;34685;-74
2021/12/13 01:54:22;;;;;;;11.68;6.15;;;;;;;-1.77;79.46;100407.13;4432543;32;35276;-73
2021/12/13 02:00:17;;;;;;;14.10;6.40;;;;;;;-1.67;78.76;100407.53;4433839;32;36027;-73
2021/12/13 02:03:04;;;;;;;13.07;6.03;;;;;;;-1.35;77.92;100400.38;4432648;32;35252;-75
2021/12/13 02:05:51;;;;;;;14.23;5.87;;;;;;;-1.49;77.90;100407.66;4431161;32;35020;-74
2021/12/13 02:08:37;;;;;;;12.30;6.22;;;;;;;-1.69;79.07;100405.03;4433493;32;34563;-74
2021/12/13 02:11:26;;;;;;;12.18;6.35;;;;;;;-1.47;78.12;100408.28;4432463;32;35982;-74
2021/12/13 02:14:18;;;;;;;13.02;6.07;;;;;;;-1.46;78.69;100399.16;4433477;32;35426;-74
2021/12/13 02:17:12;;;;;;;15.35;6.68;;;;;;;-1.92;79.98;100400.16;4431625;32;34218;-75
2021/12/13 02:20:04;;;;;;;11.10;5.72;;;;;;;-1.88;79.72;100412.12;4431791;32;35480;-74
2021/12/13 02:22:52;;;;;;;12.70;6.80;;;;;;;-1.68;78.98;100421.97;4433361;32;33631;-74
2021/12/13 02:25:43;;;;;;;15.02;6.65;;;;;;;-1.53;79.02;100411.81;4430965;32;35395;-75
2021/12/13 02:28:30;;;;;;;;;;;;;;;-1.89;80.00;100421.22;4422349;32;33704;-74
2021/12/13 02:31:23;;;;;;;13.85;6.45;;;;;;;-1.88;80.17;100417.50;4431444;32;34756;-74
2021/12/13 02:34:16;;;;;;;13.93;6.25;;;;;;;-1.68;79.12;100416.59;4432540;32;34958;-74
2021/12/13 02:37:03;;;;;;;13.73;6.37;;;;;;;-1.67;79.15;100413.72;4432715;32;34254;-74
2021/12/13 02:39:56;;;;;;;12.30;6.03;;;;;;;-1.79;79.32;100419.94;4431285;32;33199;-74
2021/12/13 02:42:43;;;;;;;12.45;6.05;;;;;;;-1.73;79.44;100421.81;4432405;32;34646;-74
2021/12/13 02:45:42;;;;;;;16.20;6.60;;;;;;;-1.56;78.62;100431.06;4434419;32;36042;-74
2021/12/13 02:48:36;;;;;;;12.32;6.57;;;;;;;-1.71;78.94;100433.16;4434275;32;34651;-74
2021/12/13 02:51:42;;;;;;;15.10;6.78;;;;;;;-1.92;80.00;100429.69;4433793;32;33737;-74
2021/12/13 02:54:33;;;;;;;15.60;7.30;;;;;;;-1.91;80.27;100422.47;4434240;32;34701;-74
2021/12/13 02:57:21;;;;;;;14.50;6.55;;;;;;;-1.94;80.14;100421.00;4434640;32;33947;-74
2021/12/13 03:00:14;;;;;;;15.05;7.20;;;;;;;-1.61;79.13;100417.44;4435275;32;36195;-74
2021/12/13 03:03:06;;;;;;;13.88;6.28;;;;;;;-1.62;78.62;100423.84;4420812;32;35749;-74
2021/12/13 03:05:55;;;;;;;16.10;6.95;;;;;;;-1.52;78.19;100426.06;4434327;32;34334;-74
2021/12/13 03:08:45;;;;;;;12.82;6.72;;;;;;;-1.50;78.34;100416.78;4433954;32;36137;-73
2021/12/13 03:11:33;;;;;;;13.07;6.97;;;;;;;-1.68;78.48;100420.16;4432981;32;35428;-75
2021/12/13 03:14:26;;;;;;;13.52;6.93;;;;;;;-1.53;78.43;100414.50;4431937;32;33861;-74
2021/12/13 03:17:29;;;;;;;15.05;7.15;;;;;;;-1.66;78.75;100409.16;4434976;32;34575;-73
2021/12/13 03:20:18;;;;;;;13.43;7.32;;;;;;;-1.63;79.06;100409.56;4433003;32;34995;-74
2021/12/13 03:23:42;;;;;;;14.10;6.60;;;;;;;-1.59;78.52;100412.69;4433703;32;35516;-75
2021/12/13 03:26:54;;;;;;;14.68;6.68;;;;;;;-1.58;78.49;100406.25;4434030;32;34273;-74
2021/12/13 03:29:59;;;;;;;14.00;6.25;;;;;;;-1.56;79.06;100406.06;4422717;32;34245;-75
2021/12/13 03:33:03;;;;;;;15.15;6.93;;;;;;;-0.98;76.48;100406.78;4433023;32;35627;-75
2021/12/13 03:35:56;;;;;;;15.20;7.28;;;;;;;-1.12;75.94;100410.59;4431432;32;34660;-74
2021/12/13 03:38:48;;;;;;;15.20;7.62;;;;;;;-1.27;76.76;100412.75;4433625;32;34053;-74
2021/12/13 03:41:39;;;;;;;14.43;7.03;;;;;;;-1.57;78.45;100405.19;4433421;32;34458;-74
2021/12/13 03:44:32;;;;;;;16.75;6.87;;;;;;;-1.44;78.00;100420.47;4430850;32;35972;-74
2021/12/13 03:47:23;;;;;;;15.00;7.70;;;;;;;-1.73;79.39;100419.94;4432316;32;34183;-75
2021/12/13 03:50:17;;;;;;;17.40;8.05;;;;;;;-1.82;80.46;100423.91;4434609;32;35017;-74
2021/12/13 03:53:11;;;;;;;18.87;8.70;;;;;;;-1.62;79.91;100421.97;4431738;32;35118;-74
2021/12/13 03:56:02;;;;;;;19.92;9.02;;;;;;;-1.60;79.73;100422.56;4433690;32;34962;-75
2021/12/13 03:58:52;;;;;;;16.37;8.27;;;;;;;-0.96;77.97;100426.22;4432956;32;34898;-74
2021/12/13 04:01:44;;;;;;;18.17;7.78;;;;;;;-1.31;77.95;100422.25;4432999;32;34164;-74
2021/12/13 04:04:55;;;;;;;14.85;7.30;;;;;;;-1.89;81.16;100428.44;4433554;32;34484;-74
2021/12/13 04:07:46;;;;;;;20.55;9.18;;;;;;;-1.59;80.57;100431.50;4432830;32;34721;-74
2021/12/13 04:10:40;;;;;;;14.68;7.68;;;;;;;-1.73;80.25;100430.69;4434704;32;35142;-74
2021/12/13 04:13:30;;;;;;;18.33;7.70;;;;;;;-2.12;82.09;100428.91;4433775;32;33936;-75
2021/12/13 04:16:33;;;;;;;20.67;9.02;;;;;;;-1.90;81.92;100449.12;4433261;32;35539;-74
2021/12/13 04:19:21;;;;;;;16.80;7.72;;;;;;;-1.95;82.05;100446.22;4433834;32;34502;-74
2021/12/13 04:22:09;;;;;;;15.43;8.05;;;;;;;-1.70;81.52;100445.56;4431996;32;35111;-74
2021/12/13 04:25:04;;;;;;;15.98;8.52;;;;;;;-2.06;82.62;100444.19;4432867;32;33991;-74
2021/12/13 04:28:02;;;;;;;18.87;8.38;;;;;;;-2.02;82.63;100437.37;4433105;32;36178;-74
2021/12/13 04:30:54;;;;;;;20.77;8.40;;;;;;;-1.71;81.44;100438.53;4433123;32;34510;-74
2021/12/13 04:33:48;;;;;;;17.33;8.45;;;;;;;-1.65;81.01;100443.06;4432929;32;34621;-74
2021/12/13 04:36:40;;;;;;;17.45;8.23;;;;;;;-1.99;82.92;100452.22;4433988;32;34225;-74
2021/12/13 04:39:28;;;;;;;23.45;10.75;;;;;;;-2.19;83.68;100450.41;4433656;32;33646;-74
2021/12/13 04:42:17;;;;;;;21.08;12.13;;;;;;;-2.30;84.13;100441.09;4432652;32;34958;-73
2021/12/13 04:45:11;;;;;;;31.15;11.73;;;;;;;-2.27;84.61;100443.38;4431092;32;34626;-75
2021/12/13 04:48:08;;;;;;;22.42;10.88;;;;;;;-2.00;84.08;100451.41;4432700;32;33791;-74
2021/12/13 04:50:57;;;;;;;24.37;11.75;;;;;;;-1.88;83.70;100443.53;4432968;32;34372;-74
2021/12/13 04:53:46;;;;;;;24.35;10.65;;;;;;;-2.01;83.58;100439.00;4430707;32;35889;-74
2021/12/13 04:56:33;;;;;;;27.48;13.02;;;;;;;-2.03;84.24;100447.25;4425208;32;34633;-74
2021/12/13 04:59:20;;;;;;;25.25;11.75;;;;;;;-2.20;85.35;100437.16;4432876;32;34463;-74
2021/12/13 05:02:09;;;;;;;25.70;11.85;;;;;;;-2.34;86.46;100447.91;4430783;32;34633;-74
2021/12/13 05:05:00;;;;;;;24.83;10.85;;;;;;;-2.22;86.13;100449.97;4429749;32;34532;-75
2021/12/13 05:07:49;;;;;;;22.55;11.80;;;;;;;-1.95;84.82;100454.28;4432151;32;34281;-73
2021/12/13 05:10:36;;;;;;;22.65;10.23;;;;;;;-1.99;84.80;100458.44;4432814;32;34596;-73
2021/12/13 05:13:28;;;;;;;25.15;11.00;;;;;;;-1.61;84.49;100463.09;4420198;32;35464;-73
2021/12/13 05:16:17;;;;;;;21.17;10.35;;;;;;;-2.33;86.54;100463.00;4430862;32;35007;-73
2021/12/13 05:19:07;;;;;;;22.77;11.38;;;;;;;-2.25;86.60;100464.63;4429172;32;34704;-72
2021/12/13 05:21:55;;;;;;;23.20;11.50;;;;;;;-2.30;87.43;100462.56;4430193;32;34246;-73
2021/12/13 05:25:02;;;;;;;20.52;10.18;;;;;;;-2.12;87.33;100474.56;4433850;32;35556;-73
2021/12/13 05:28:16;;;;;;;25.85;11.45;;;;;;;-2.27;87.41;100472.91;4432295;32;36750;-73
2021/12/13 05:31:09;;;;;;;22.67;11.20;;;;;;;-2.31;87.84;100477.00;4432227;32;35008;-72
2021/12/13 05:34:00;;;;;;;26.37;11.35;;;;;;;-2.01;86.86;100481.97;4441032;32;34205;-73
2021/12/13 05:36:58;;;;;;;24.55;12.10;;;;;;;-2.17;88.05;100485.09;4428788;32;34656;-72
2021/12/13 05:40:05;;;;;;;26.65;11.98;;;;;;;-2.03;87.59;100473.31;4428999;32;35332;-72
2021/12/13 05:42:54;;;;;;;23.15;12.15;;;;;;;-2.14;88.32;100484.66;4430951;32;34447;-73
2021/12/13 05:45:44;;;;;;;23.75;11.57;;;;;;;-2.16;88.56;100489.41;4433298;32;33968;-73
2021/12/13 05:48:34;;;;;;;26.25;13.10;;;;;;;-2.12;88.46;100487.97;4425872;32;34591;-71
2021/12/13 05:51:35;;;;;;;26.45;12.20;;;;;;;-2.12;88.42;100486.12;4427021;32;35493;-73
2021/12/13 05:54:29;;;;;;;22.77;11.40;;;;;;;-2.04;87.91;100493.16;4431603;32;34893;-73
2021/12/13 05:57:34;;;;;;;25.17;11.43;;;;;;;-1.86;88.05;100500.56;4425672;32;36456;-73
2021/12/13 06:00:30;;;;;;;23.98;11.98;;;;;;;-1.97;88.56;100493.12;4428602;32;35314;-73
2021/12/13 06:03:30;;;;;;;24.23;12.18;;;;;;;-2.02;88.41;100491.09;4431374;32;34932;-72
2021/12/13 06:06:21;;;;;;;24.10;12.00;;;;;;;-1.63;87.76;100500.09;4432314;32;34350;-71
2021/12/13 06:09:09;;;;;;;26.62;11.45;;;;;;;-1.62;87.47;100499.91;4431290;32;35163;-71
2021/12/13 06:12:04;;;;;;;25.65;12.25;;;;;;;-1.92;88.37;100501.41;4419139;32;34634;-71
2021/12/13 06:14:52;;;;;;;24.00;12.27;;;;;;;-1.44;86.52;100501.13;4432271;32;35058;-71
2021/12/13 06:18:01;;;;;;;24.50;12.25;;;;;;;-1.63;87.15;100502.78;4430094;32;35152;-71
2021/12/13 06:20:56;;;;;;;25.45;12.85;;;;;;;-0.94;83.33;100509.41;4430491;32;33829;-71
2021/12/13 06:23:46;;;;;;;25.12;12.57;;;;;;;-1.06;84.44;100511.94;4431019;32;35493;-72
2021/12/13 06:26:33;;;;;;;23.52;12.13;;;;;;;-1.02;84.68;100510.47;4431847;32;35888;-71
2021/12/13 06:29:20;;;;;;;28.55;12.68;;;;;;;-1.41;85.60;100520.31;4429867;32;34642;-71
2021/12/13 06:32:33;;;;;;;29.08;13.82;;;;;;;-1.39;86.30;100518.25;4430109;32;35077;-71
2021/12/13 06:35:38;;;;;;;27.37;13.32;;;;;;;-1.09;84.76;100523.12;4431273;32;33488;-72
2021/12/13 06:38:41;;;;;;;24.08;11.85;;;;;;;-0.78;83.28;100513.47;4430933;32;35025;-72
2021/12/13 06:41:27;;;;;;;29.50;13.35;;;;;;;-1.52;85.92;100529.03;4430195;32;33573;-72
2021/12/13 06:44:27;;;;;;;29.17;12.65;;;;;;;-1.52;86.55;100528.22;4432756;32;35879;-71
2021/12/13 06:47:20;;;;;;;28.48;12.98;;;;;;;-1.53;87.60;100532.78;4429925;32;34300;-72
2021/12/13 06:50:07;;;;;;;28.12;14.43;;;;;;;-1.79;88.38;100538.16;4425691;32;35025;-72
2021/12/13 06:53:15;;;;;;;25.05;12.05;;;;;;;-1.37;87.39;100535.00;4422715;32;34497;-71
2021/12/13 06:56:23;;;;;;;27.05;13.05;;;;;;;-1.57;87.35;100536.88;4428640;32;34516;-71
2021/12/13 06:59:15;;;;;;;30.73;13.32;;;;;;;-1.31;86.75;100535.19;4429566;32;34449;-71
2021/12/13 07:02:04;;;;;;;24.33;12.73;;;;;;;-1.53;87.32;100527.41;4429123;32;34729;-71
2021/12/13 07:04:53;;;;;;;26.45;13.15;;;;;;;-1.24;87.44;100533.31;4426689;32;35058;-73
2021/12/13 07:07:59;;;;;;;26.40;13.48;;;;;;;-1.37;87.38;100540.38;4430242;32;34173;-71
2021/12/13 07:10:58;;;;;;;31.70;15.77;;;;;;;-1.43;86.81;100529.63;4429969;32;35712;-71
2021/12/13 07:14:06;;;;;;;33.90;14.98;;;;;;;-1.56;88.29;100527.81;4426809;32;36183;-71
2021/12/13 07:16:53;;;;;;;28.52;14.23;;;;;;;-1.29;87.81;100536.63;4424770;32;34251;-71
2021/12/13 07:19:41;;;;;;;28.52;13.25;;;;;;;-1.27;87.61;100545.31;4424421;32;34312;-71
2021/12/13 07:22:30;;;;;;;27.10;12.48;;;;;;;-0.81;85.65;100544.31;4426965;32;34282;-70
2021/12/13 07:25:17;;;;;;;27.58;13.55;;;;;;;-1.14;86.27;100547.97;4430589;32;34614;-71
2021/12/13 07:28:05;;;;;;;28.35;14.15;;;;;;;-1.10;86.62;100548.38;4431238;32;34327;-71
2021/12/13 07:30:53;;;;;;;34.08;14.90;;;;;;;-1.36;87.91;100547.41;4433428;32;34900;-71
2021/12/13 07:33:42;;;;;;;29.27;14.85;;;;;;;-1.32;87.96;100547.81;4431014;32;34600;-70
2021/12/13 07:36:29;;;;;;;39.85;19.70;;;;;;;-1.16;87.62;100550.03;4430634;32;34729;-71
2021/12/13 07:39:16;;;;;;;34.13;16.45;;;;;;;-1.22;87.79;100544.69;4428529;32;35444;-72
2021/12/13 07:42:06;;;;;;;33.45;17.42;;;;;;;-0.99;87.74;100558.47;4430296;32;33923;-71
2021/12/13 07:44:53;;;;;;;38.53;20.58;;;;;;;-1.21;88.09;100551.72;4432854;32;35757;-71
2021/12/13 07:47:41;;;;;;;28.33;14.15;;;;;;;-0.89;87.09;100555.31;4434471;32;34475;-72
2021/12/13 07:50:27;;;;;;;28.40;14.55;;;;;;;-0.87;87.44;100558.63;4427955;32;34856;-71
2021/12/13 07:53:16;;;;;;;26.73;14.02;;;;;;;-0.81;87.12;100563.16;4425412;32;34987;-70
2021/12/13 07:56:04;;;;;;;27.05;14.90;;;;;;;-0.59;85.91;100574.44;4417362;32;34402;-72
2021/12/13 07:59:15;;;;;;;32.22;16.23;;;;;;;-0.83;87.14;100564.41;4430676;32;34828;-73
2021/12/13 08:02:07;;;;;;;29.77;15.32;;;;;;;-0.60;87.10;100563.88;4429985;32;34609;-73
2021/12/13 08:05:08;;;;;;;44.50;20.55;;;;;;;-0.32;86.04;100571.59;4430430;32;34767;-72
2021/12/13 08:07:59;;;;;;;26.33;13.93;;;;;;;-0.22;85.63;100579.22;4428400;32;34662;-73
2021/12/13 08:10:46;;;;;;;27.58;14.75;;;;;;;-0.24;85.54;100579.44;4429736;32;34757;-72
2021/12/13 08:13:33;;;;;;;30.20;13.65;;;;;;;-0.04;85.16;100577.44;4428938;32;34428;-71
2021/12/13 08:16:29;;;;;;;26.40;13.07;;;;;;;-0.21;85.65;100572.78;4432078;32;35200;-72
2021/12/13 08:19:24;;;;;;;27.75;14.32;;;;;;;-0.13;85.61;100581.44;4429939;32;34544;-72
2021/12/13 08:22:17;;;;;;;31.40;15.07;;;;;;;-0.25;86.28;100585.87;4428205;32;34891;-71
2021/12/13 08:25:15;;;;;;;32.45;14.95;;;;;;;-0.02;85.10;100588.81;4433522;32;35458;-72
2021/12/13 08:28:06;;;;;;;32.95;17.27;;;;;;;0.25;84.04;100587.78;4432754;32;34236;-71
2021/12/13 08:30:55;;;;;;;24.83;13.02;;;;;;;0.10;84.52;100588.12;4429423;32;34285;-72
2021/12/13 08:33:47;;;;;;;28.52;14.85;;;;;;;0.03;84.82;100600.81;4429524;32;34592;-72
2021/12/13 08:36:45;;;;;;;24.27;13.10;;;;;;;0.06;84.60;100592.28;4430486;32;34522;-70
2021/12/13 08:39:35;;;;;;;28.92;12.50;;;;;;;0.08;84.40;100592.87;4427668;32;34794;-71
2021/12/13 08:42:25;;;;;;;21.60;11.90;;;;;;;0.18;84.03;100595.94;4423750;32;34673;-72
2021/12/13 08:45:19;;;;;;;23.83;13.02;;;;;;;0.44;82.34;100592.19;4426615;32;36113;-73
2021/12/13 08:48:20;;;;;;;23.87;12.30;;;;;;;0.37;82.81;100586.88;4426709;32;34920;-71
2021/12/13 08:51:07;;;;;;;25.73;12.15;;;;;;;0.42;82.23;100592.41;4430752;32;34463;-72
2021/12/13 08:54:12;;;;;;;25.08;12.95;;;;;;;0.74;80.96;100603.13;4430864;32;35512;-72
2021/12/13 08:56:59;;;;;;;21.90;10.85;;;;;;;0.58;81.05;100606.37;4429173;32;35524;-71
2021/12/13 08:59:51;;;;;;;21.25;11.07;;;;;;;1.04;79.89;100597.00;4430844;32;34693;-71
2021/12/13 09:02:41;;;;;;;22.10;11.95;;;;;;;0.75;80.14;100610.16;4429584;32;35160;-71
2021/12/13 09:05:51;;;;;;;23.12;11.15;;;;;;;0.90;79.51;100601.72;4430957;32;34612;-71
2021/12/13 09:08:44;;;;;;;20.37;10.77;;;;;;;1.36;78.19;100594.94;4435960;32;33825;-70
2021/12/13 09:11:33;;;;;;;24.12;12.32;;;;;;;1.33;77.96;100596.22;4429847;32;34030;-74
2021/12/13 09:14:25;;;;;;;26.17;12.23;;;;;;;1.27;77.52;100602.53;4428641;32;33989;-76
2021/12/13 09:17:16;;;;;;;22.42;12.18;;;;;;;1.32;77.58;100599.16;4429282;32;35457;-77
2021/12/13 09:20:12;;;;;;;21.30;11.93;;;;;;;1.17;78.37;100604.97;4428627;32;36018;-77
2021/12/13 09:23:19;;;;;;;23.33;12.48;;;;;;;1.11;78.75;100595.88;4430546;32;35220;-77
2021/12/13 09:26:07;;;;;;;19.83;10.23;;;;;;;1.61;77.08;100597.53;4431882;32;34213;-77
2021/12/13 09:29:04;;;;;;;28.67;14.73;;;;;;;1.72;76.31;100601.34;4432354;32;34440;-76
2021/12/13 09:31:52;;;;;;;28.15;15.07;;;;;;;1.69;76.18;100597.22;4436900;32;35179;-76
2021/12/13 09:34:38;;;;;;;30.15;16.58;;;;;;;1.47;76.97;100596.87;4435367;32;34469;-74
2021/12/13 09:37:33;;;;;;;21.45;10.20;;;;;;;1.63;76.67;100590.03;4421516;32;34289;-73
2021/12/13 09:40:29;;;;;;;19.65;11.05;;;;;;;1.60;76.16;100595.91;4430955;32;35525;-74
2021/12/13 09:43:18;;;;;;;22.20;11.10;;;;;;;1.62;76.13;100588.38;4432038;32;36025;-76
2021/12/13 09:46:04;;;;;;;22.70;11.35;;;;;;;1.59;75.75;100591.53;4428057;32;34478;-76
2021/12/13 09:48:52;;;;;;;23.12;10.77;;;;;;;1.66;76.50;100581.47;4429158;32;33919;-76
2021/12/13 09:51:43;;;;;;;23.50;12.60;;;;;;;1.96;74.99;100586.03;4432866;32;34682;-74
2021/12/13 09:54:34;;;;;;;21.75;10.32;;;;;;;1.64;76.38;100580.06;4430359;32;34632;-73
2021/12/13 09:57:30;;;;;;;23.33;10.60;;;;;;;1.82;75.52;100576.47;4431786;32;34760;-74
2021/12/13 10:00:27;;;;;;;20.95;11.48;;;;;;;1.51;76.96;100575.66;4432108;32;34045;-74
2021/12/13 10:03:34;;;;;;;28.10;14.40;;;;;;;1.68;76.51;100568.56;4434295;32;35420;-74
2021/12/13 10:06:51;;;;;;;22.77;11.52;;;;;;;1.55;77.07;100560.62;4433024;32;34884;-75
2021/12/13 10:09:44;;;;;;;23.42;13.27;;;;;;;1.90;76.07;100568.03;4427367;32;34510;-73
2021/12/13 10:12:39;;;;;;;21.58;11.93;;;;;;;1.58;76.77;100566.41;4417677;32;35038;-72
2021/12/13 10:15:39;;;;;;;25.75;12.55;;;;;;;1.63;76.93;100565.72;4433434;32;34339;-73
2021/12/13 10:18:29;;;;;;;51.53;16.58;;;;;;;1.52;77.47;100567.31;4430635;32;34987;-74
2021/12/13 10:21:26;;;;;;;22.62;13.43;;;;;;;1.60;77.23;100562.66;4431887;32;34553;-74
2021/12/13 10:24:29;;;;;;;23.60;13.82;;;;;;;1.98;76.38;100565.00;4424873;32;178128;-73
2021/12/13 10:27:17;;;;;;;26.00;13.00;;;;;;;1.72;76.54;100566.22;4432048;32;34664;-73
2021/12/13 10:30:12;;;;;;;26.27;12.70;;;;;;;1.82;76.69;100562.97;4432950;32;34983;-73
2021/12/13 10:33:01;;;;;;;28.80;14.77;;;;;;;1.69;76.56;100558.59;4430882;32;34144;-77
2021/12/13 10:35:49;;;;;;;26.40;12.52;;;;;;;1.87;76.26;100563.09;4433084;32;34300;-76
2021/12/13 10:38:53;;;;;;;26.25;13.85;;;;;;;1.87;76.58;100563.91;4432777;32;34662;-74
2021/12/13 10:41:45;;;;;;;26.90;13.57;;;;;;;1.84;76.07;100558.16;4432627;32;34928;-75
2021/12/13 10:44:32;;;;;;;26.95;14.65;;;;;;;2.01;76.12;100557.25;4432893;32;35478;-74
2021/12/13 10:47:30;;;;;;;20.90;12.02;;;;;;;2.13;74.66;100548.34;4433469;32;34152;-76
2021/12/13 10:50:30;;;;;;;21.17;10.43;;;;;;;1.94;75.28;100561.12;4433510;32;35631;-74
2021/12/13 10:53:20;;;;;;;21.42;10.98;;;;;;;2.17;74.20;100550.34;4425055;32;34593;-72
2021/12/13 10:56:17;;;;;;;19.83;10.52;;;;;;;1.78;75.22;100549.09;4422692;32;35469;-72
2021/12/13 10:59:08;;;;;;;20.02;11.32;;;;;;;2.31;72.83;100545.56;4426294;32;34515;-73
2021/12/13 11:01:57;;;;;;;23.60;11.27;;;;;;;1.79;74.03;100546.16;4430350;32;34353;-74
2021/12/13 11:04:51;;;;;;;27.58;10.55;;;;;;;2.23;72.83;100538.59;4435126;32;37229;-72
2021/12/13 11:07:38;;;;;;;22.60;9.80;;;;;;;2.15;72.27;100557.03;4434428;32;34278;-72
2021/12/13 11:10:31;;;;;;;19.62;9.60;;;;;;;2.38;71.12;100550.84;4432806;32;35044;-72
2021/12/13 11:13:38;;;;;;;21.73;10.57;;;;;;;2.43;70.76;100540.16;4432466;32;35413;-73
2021/12/13 11:16:47;;;;;;;22.10;11.68;;;;;;;2.86;69.91;100549.75;4431124;32;35013;-73
2021/12/13 11:19:38;;;;;;;22.48;10.02;;;;;;;2.50;71.15;100543.53;4430827;32;35537;-72
2021/12/13 11:22:28;;;;;;;18.23;9.93;;;;;;;2.64;71.27;100544.94;4432336;32;34039;-73
2021/12/13 11:25:34;;;;;;;21.70;12.18;;;;;;;2.40;71.59;100551.44;4430999;32;35488;-72
2021/12/13 11:28:22;;;;;;;25.00;13.10;;;;;;;2.29;72.04;100546.84;4432702;32;34934;-73
2021/12/13 11:31:14;;;;;;;21.50;12.27;;;;;;;2.48;72.72;100545.69;4431021;32;34381;-72
2021/12/13 11:34:01;;;;;;;23.83;13.95;;;;;;;2.78;72.78;100553.66;4430125;32;35054;-73
2021/12/13 11:37:31;;;;;;;25.37;13.20;;;;;;;2.48;73.19;100545.69;4430553;32;36193;-75
2021/12/13 11:40:55;;;;;;;23.90;12.77;;;;;;;2.73;73.24;100547.28;4432278;32;35011;-74
2021/12/13 11:44:27;;;;;;;26.65;13.93;;;;;;;2.52;73.64;100537.91;4430765;32;34833;-73
2021/12/13 11:47:24;;;;;;;29.87;14.35;;;;;;;2.52;74.25;100537.91;4411315;32;34424;-71
2021/12/13 11:50:29;;;;;;;26.58;14.68;;;;;;;2.69;73.83;100528.81;4431638;32;34732;-72
2021/12/13 11:53:36;;;;;;;29.90;13.45;;;;;;;2.61;74.19;100531.87;4430145;32;34850;-71
2021/12/13 11:56:33;;;;;;;25.58;13.75;;;;;;;2.72;73.57;100534.84;4427627;32;34293;-74
2021/12/13 11:59:34;;;;;;;30.92;17.42;;;;;;;2.72;73.22;100526.72;4431108;32;33769;-74
2021/12/13 12:02:26;;;;;;;;;;;;;;;2.58;74.30;100529.66;4431523;32;34386;-75
2021/12/13 12:05:53;;;;;;;28.95;14.18;;;;;;;2.76;72.70;100523.31;4428731;32;35183;-75
2021/12/13 12:09:07;;;;;;;27.83;14.52;;;;;;;2.59;73.97;100523.22;4384534;32;35094;-73
2021/12/13 12:12:31;;;;;;;24.42;11.68;;;;;;;2.61;73.95;100523.78;4430607;32;34275;-74
2021/12/13 12:15:20;;;;;;;25.25;12.70;;;;;;;2.68;73.29;100524.50;4431367;32;35401;-75
2021/12/13 12:18:10;;;;;;;20.73;11.85;;;;;;;2.87;72.38;100535.16;4432687;32;34701;-76
2021/12/13 12:21:33;;;;;;;23.30;11.98;;;;;;;2.91;72.11;100530.94;4430055;32;34297;-73
2021/12/13 12:24:30;;;;;;;23.42;11.27;;;;;;;2.71;72.87;100539.44;4431831;32;34957;-75
2021/12/13 12:27:19;;;;;;;20.27;10.70;;;;;;;3.14;71.23;100536.28;4430838;32;35347;-76
2021/12/13 12:30:12;;;;;;;20.17;10.43;;;;;;;3.07;70.97;100530.16;4430012;32;36023;-75
2021/12/13 12:33:06;;;;;;;18.90;10.48;;;;;;;3.23;70.44;100534.00;4433206;32;33326;-74
2021/12/13 12:35:53;;;;;;;23.45;10.75;;;;;;;3.14;69.66;100541.69;4433672;32;34184;-74
2021/12/13 12:39:04;;;;;;;22.15;9.93;;;;;;;2.97;69.83;100538.09;4432001;32;34941;-76
2021/12/13 12:42:44;;;;;;;22.50;11.65;;;;;;;2.88;70.74;100534.12;4430664;32;35070;-77
2021/12/13 12:45:35;;;;;;;22.33;11.20;;;;;;;3.11;70.67;100536.75;4383334;32;35393;-76
2021/12/13 12:48:37;;;;;;;20.48;10.95;;;;;;;2.87;72.39;100535.16;4431469;32;34356;-75
2021/12/13 12:51:27;;;;;;;20.42;10.48;;;;;;;2.97;72.58;100535.37;4434799;32;34658;-75
2021/12/13 12:54:19;;;;;;;24.75;11.90;;;;;;;3.40;70.82;100528.66;4432237;32;34404;-78
2021/12/13 12:57:05;;;;;;;24.70;12.00;;;;;;;3.07;71.53;100532.88;4433023;32;34644;-76
2021/12/13 12:59:52;;;;;;;22.05;12.13;;;;;;;3.15;71.33;100527.06;4427078;32;33799;-77
2021/12/13 13:02:45;;;;;;;23.50;12.15;;;;;;;3.04;71.67;100538.75;4430696;32;34647;-76
2021/12/13 13:05:32;;;;;;;22.52;11.88;;;;;;;2.87;72.51;100533.25;4434051;32;34916;-76
2021/12/13 13:08:34;;;;;;;23.55;13.38;;;;;;;2.94;73.22;100530.44;4435123;32;35297;-75
2021/12/13 13:11:27;;;;;;;23.90;12.70;;;;;;;2.69;73.23;100545.06;4436308;32;34890;-76
2021/12/13 13:14:18;;;;;;;22.60;13.27;;;;;;;2.79;73.35;100533.66;4424730;32;34136;-76
2021/12/13 13:17:06;;;;;;;23.83;13.18;;;;;;;2.52;74.09;100541.44;4436416;32;35950;-76
2021/12/13 13:19:59;;;;;;;24.40;12.82;;;;;;;2.67;73.94;100546.34;4434140;32;35561;-76
2021/12/13 13:22:49;;;;;;;21.33;11.35;;;;;;;2.96;72.71;100552.69;4433041;32;36036;-76
2021/12/13 13:26:05;;;;;;;24.77;12.37;;;;;;;2.77;72.71;100553.91;4424921;32;33648;-76
2021/12/13 13:28:57;;;;;;;23.48;12.37;;;;;;;2.90;72.50;100561.75;4431241;32;36007;-77